createdAt,value
2019-05-21T00:01:09.240Z,22.10
2019-05-21T00:03:42.881Z,11.07
2019-05-21T00:06:21.904Z,7.50
2019-05-21T00:08:50.164Z,6.17
2019-05-21T00:11:17.167Z,6.57
2019-05-21T00:13:53.393Z,6.97
2019-05-21T00:16:20.363Z,6.23
2019-05-21T00:18:47.378Z,5.60
2019-05-21T00:21:17.164Z,5.47
2019-05-21T00:23:43.990Z,10.23
2019-05-21T00:26:10.759Z,6.90
2019-05-21T00:28:40.127Z,7.77
2019-05-21T00:31:44.318Z,8.23
2019-05-21T00:34:50.041Z,6.43
2019-05-21T00:37:53.926Z,8.10
2019-05-21T00:40:59.535Z,10.40
2019-05-21T00:43:54.567Z,7.47
2019-05-21T00:46:21.395Z,6.00
2019-05-21T00:48:48.096Z,5.53
2019-05-21T00:51:16.757Z,7.53
2019-05-21T00:53:43.523Z,6.27
2019-05-21T00:56:10.188Z,7.37
2019-05-21T00:58:36.933Z,16.80
2019-05-21T01:01:03.671Z,11.30
2019-05-21T01:03:30.355Z,27.37
2019-05-21T01:05:57.280Z,15.77
2019-05-21T01:08:23.975Z,10.93
2019-05-21T01:10:50.776Z,11.60
2019-05-21T01:13:17.477Z,19.73
2019-05-21T01:15:44.133Z,9.90
2019-05-21T01:18:10.927Z,15.70
2019-05-21T01:20:37.610Z,22.97
2019-05-21T01:23:04.542Z,41.33
2019-05-21T01:25:31.210Z,11.50
2019-05-21T01:27:57.985Z,34.07
2019-05-21T01:30:24.777Z,9.63
2019-05-21T01:32:51.659Z,14.87
2019-05-21T01:35:18.463Z,10.73
2019-05-21T01:37:45.127Z,10.17
2019-05-21T01:40:12.037Z,12.50
2019-05-21T01:42:38.905Z,12.93
2019-05-21T01:45:06.095Z,11.60
2019-05-21T01:47:32.774Z,12.50
2019-05-21T01:49:59.568Z,12.60
2019-05-21T01:52:26.223Z,10.23
2019-05-21T01:54:52.920Z,11.30
2019-05-21T01:57:19.584Z,16.17
2019-05-21T01:59:46.284Z,14.33
2019-05-21T02:02:12.979Z,15.70
2019-05-21T02:04:39.660Z,15.00
2019-05-21T02:07:06.343Z,14.90
2019-05-21T02:09:35.097Z,16.60
2019-05-21T02:12:01.809Z,13.70
2019-05-21T02:14:28.470Z,13.87
2019-05-21T02:16:55.282Z,13.93
2019-05-21T02:19:21.940Z,16.43
2019-05-21T02:21:48.618Z,20.00
2019-05-21T02:24:15.292Z,45.67
2019-05-21T02:26:41.967Z,14.07
2019-05-21T02:29:08.630Z,16.83
2019-05-21T02:31:35.318Z,25.73
2019-05-21T02:34:03.029Z,34.90
2019-05-21T02:36:29.845Z,44.63
2019-05-21T02:38:56.540Z,49.83
2019-05-21T02:41:23.313Z,32.03
2019-05-21T02:43:50.004Z,29.70
2019-05-21T02:46:17.001Z,24.33
2019-05-21T02:48:43.681Z,21.47
2019-05-21T02:51:10.459Z,19.43
2019-05-21T02:53:37.283Z,21.20
2019-05-21T02:56:04.178Z,18.87
2019-05-21T02:58:30.814Z,25.00
2019-05-21T03:01:07.641Z,22.93
2019-05-21T03:03:34.721Z,25.90
2019-05-21T03:06:13.002Z,24.23
2019-05-21T03:08:30.113Z,25.40
2019-05-21T03:10:56.903Z,25.17
2019-05-21T03:13:23.545Z,25.10
2019-05-21T03:15:55.614Z,23.23
2019-05-21T03:18:39.846Z,20.83
2019-05-21T03:21:09.150Z,26.37
2019-05-21T03:23:37.018Z,25.20
2019-05-21T03:26:03.890Z,26.23
2019-05-21T03:28:30.676Z,28.10
2019-05-21T03:30:57.532Z,28.10
2019-05-21T03:33:24.372Z,27.90
2019-05-21T03:35:51.265Z,26.70
2019-05-21T03:38:18.046Z,29.33
2019-05-21T03:40:45.004Z,27.27
2019-05-21T03:43:11.779Z,30.73
2019-05-21T03:45:38.558Z,32.43
2019-05-21T03:48:05.373Z,28.20
2019-05-21T03:50:32.276Z,25.20
2019-05-21T03:52:58.960Z,41.50
2019-05-21T03:55:26.082Z,38.73
2019-05-21T03:57:52.818Z,33.50
2019-05-21T04:00:19.702Z,31.87
2019-05-21T04:02:46.488Z,26.90
2019-05-21T04:05:21.624Z,27.27
2019-05-21T04:07:48.282Z,30.63
2019-05-21T04:10:15.161Z,33.00
2019-05-21T04:12:42.057Z,30.33
2019-05-21T04:15:11.390Z,32.47
2019-05-21T04:17:45.835Z,27.37
2019-05-21T04:20:12.595Z,34.70
2019-05-21T04:22:51.557Z,33.33
2019-05-21T04:25:18.917Z,32.43
2019-05-21T04:27:45.628Z,28.80
2019-05-21T04:30:13.127Z,28.83
2019-05-21T04:32:39.894Z,33.10
2019-05-21T04:35:06.675Z,34.07
2019-05-21T04:37:33.376Z,29.73
2019-05-21T04:40:00.044Z,35.17
2019-05-21T04:42:26.724Z,34.13
2019-05-21T04:44:53.420Z,32.63
2019-05-21T04:47:20.099Z,33.13
2019-05-21T04:49:46.765Z,31.53
2019-05-21T04:52:14.609Z,32.53
2019-05-21T04:54:41.398Z,31.60
2019-05-21T04:57:08.117Z,33.73
2019-05-21T04:59:35.190Z,34.40
2019-05-21T05:02:01.864Z,35.03
2019-05-21T05:04:29.816Z,35.87
2019-05-21T05:06:56.531Z,38.07
2019-05-21T05:09:23.325Z,34.80
2019-05-21T05:11:50.017Z,37.23
2019-05-21T05:14:16.774Z,36.60
2019-05-21T05:16:43.550Z,33.70
2019-05-21T05:19:10.340Z,35.87
2019-05-21T05:21:37.054Z,37.93
2019-05-21T05:24:03.935Z,32.23
2019-05-21T05:26:30.832Z,42.10
2019-05-21T05:28:57.553Z,36.00
2019-05-21T05:31:24.437Z,33.70
2019-05-21T05:33:51.137Z,37.53
2019-05-21T05:36:17.861Z,34.50
2019-05-21T05:38:44.591Z,33.73
2019-05-21T05:41:11.288Z,38.53
2019-05-21T05:43:37.953Z,37.17
2019-05-21T05:46:04.824Z,46.17
2019-05-21T05:48:33.443Z,54.53
2019-05-21T05:51:02.320Z,41.47
2019-05-21T05:53:29.026Z,34.97
2019-05-21T05:55:55.751Z,40.67
2019-05-21T05:58:22.431Z,36.80
2019-05-21T06:00:49.136Z,39.37
2019-05-21T06:03:15.902Z,38.00
2019-05-21T06:05:42.716Z,37.50
2019-05-21T06:08:09.494Z,41.90
2019-05-21T06:10:39.815Z,45.50
2019-05-21T06:13:04.962Z,41.63
2019-05-21T06:15:31.658Z,42.17
2019-05-21T06:17:58.347Z,41.47
2019-05-21T06:20:25.598Z,34.10
2019-05-21T06:22:52.310Z,43.20
2019-05-21T06:25:19.300Z,57.50
2019-05-21T06:27:46.109Z,46.80
2019-05-21T06:30:13.273Z,39.43
2019-05-21T06:32:40.070Z,39.63
2019-05-21T06:35:06.883Z,75.80
2019-05-21T06:37:34.018Z,48.83
2019-05-21T06:40:00.843Z,81.17
2019-05-21T06:42:27.526Z,50.17
2019-05-21T06:44:54.439Z,54.17
2019-05-21T06:47:21.207Z,49.10
2019-05-21T06:49:48.989Z,37.60
2019-05-21T06:52:15.768Z,39.17
2019-05-21T06:54:42.554Z,44.50
2019-05-21T06:57:09.289Z,45.17
2019-05-21T06:59:36.047Z,45.33
2019-05-21T07:02:02.861Z,49.50
2019-05-21T07:04:29.530Z,55.87
2019-05-21T07:06:56.319Z,51.40
2019-05-21T07:09:23.119Z,41.60
2019-05-21T07:11:49.781Z,44.90
2019-05-21T07:14:16.460Z,46.27
2019-05-21T07:16:43.412Z,45.63
2019-05-21T07:19:10.292Z,43.87
2019-05-21T07:21:37.057Z,47.83
2019-05-21T07:24:03.852Z,41.33
2019-05-21T07:26:30.654Z,50.23
2019-05-21T07:28:57.639Z,44.67
2019-05-21T07:31:24.602Z,46.30
2019-05-21T07:33:51.274Z,47.90
2019-05-21T07:36:18.072Z,48.20
2019-05-21T07:38:53.473Z,65.97
2019-05-21T07:41:13.530Z,46.60
2019-05-21T07:43:40.268Z,47.37
2019-05-21T07:46:07.302Z,42.90
2019-05-21T07:48:34.075Z,48.07
2019-05-21T07:51:01.650Z,42.67
2019-05-21T07:53:28.307Z,46.93
2019-05-21T07:55:55.093Z,47.63
2019-05-21T07:58:21.939Z,48.73
2019-05-21T08:00:48.830Z,40.63
2019-05-21T08:03:15.609Z,44.70
2019-05-21T08:05:42.341Z,57.70
2019-05-21T08:08:09.000Z,40.63
2019-05-21T08:10:36.778Z,45.23
2019-05-21T08:13:03.727Z,48.80
2019-05-21T08:15:30.573Z,45.27
2019-05-21T08:17:57.666Z,42.97
2019-05-21T08:20:24.953Z,45.53
2019-05-21T08:22:51.741Z,42.43
2019-05-21T08:25:18.408Z,44.07
2019-05-21T08:27:45.129Z,41.50
2019-05-21T08:30:12.138Z,38.23
2019-05-21T08:32:38.916Z,41.93
2019-05-21T08:35:05.732Z,40.73
2019-05-21T08:37:32.537Z,40.67
2019-05-21T08:39:59.320Z,40.80
2019-05-21T08:42:26.094Z,43.07
2019-05-21T08:44:52.871Z,42.50
2019-05-21T08:47:19.655Z,36.10
2019-05-21T08:49:46.489Z,32.20
2019-05-21T08:52:13.271Z,34.00
2019-05-21T08:54:55.918Z,34.90
2019-05-21T08:57:22.681Z,36.97
2019-05-21T08:59:49.568Z,28.97
2019-05-21T09:02:17.976Z,30.83
2019-05-21T09:04:46.703Z,32.47
2019-05-21T09:07:13.926Z,30.67
2019-05-21T09:09:49.882Z,32.30
2019-05-21T09:12:09.687Z,29.37
2019-05-21T09:14:36.700Z,27.50
2019-05-21T09:17:03.515Z,29.53
2019-05-21T09:19:30.210Z,29.40
2019-05-21T09:21:57.009Z,26.00
2019-05-21T09:24:23.763Z,30.77
2019-05-21T09:26:50.656Z,28.30
2019-05-21T09:29:17.427Z,35.63
2019-05-21T09:31:44.320Z,37.73
2019-05-21T09:34:11.471Z,27.00
2019-05-21T09:36:38.338Z,30.00
2019-05-21T09:39:05.560Z,26.90
2019-05-21T09:41:34.453Z,27.43
2019-05-21T09:44:04.428Z,34.40
2019-05-21T09:46:31.658Z,28.00
2019-05-21T09:48:58.721Z,34.70
2019-05-21T09:51:25.516Z,30.70
2019-05-21T09:53:52.213Z,41.27
2019-05-21T09:56:31.240Z,30.90
2019-05-21T09:59:00.394Z,41.43
2019-05-21T10:01:47.709Z,29.70
2019-05-21T10:04:12.475Z,28.00
2019-05-21T10:06:39.354Z,44.80
2019-05-21T10:09:09.021Z,35.27
2019-05-21T10:11:35.893Z,33.67
2019-05-21T10:14:03.889Z,44.80
2019-05-21T10:16:30.570Z,34.33
2019-05-21T10:18:57.414Z,34.13
2019-05-21T10:21:24.237Z,32.80
2019-05-21T10:23:51.301Z,33.20
2019-05-21T10:26:18.158Z,32.03
2019-05-21T10:28:44.970Z,40.17
2019-05-21T10:31:11.887Z,38.17
2019-05-21T10:33:38.802Z,37.93
2019-05-21T10:36:05.581Z,31.90
2019-05-21T10:38:32.458Z,28.77
2019-05-21T10:40:59.400Z,32.90
2019-05-21T10:43:26.323Z,36.37
2019-05-21T10:45:53.014Z,34.13
2019-05-21T10:48:20.426Z,40.63
2019-05-21T10:50:47.114Z,30.10
2019-05-21T10:53:14.129Z,33.23
2019-05-21T10:55:40.902Z,35.30
2019-05-21T10:58:07.598Z,33.30
2019-05-21T11:00:34.392Z,36.93
2019-05-21T11:03:08.980Z,33.87
2019-05-21T11:05:37.862Z,29.93
2019-05-21T11:08:22.795Z,33.80
2019-05-21T11:10:34.422Z,41.70
2019-05-21T11:13:01.367Z,46.37
2019-05-21T11:15:28.220Z,32.37
2019-05-21T11:18:09.673Z,40.97
2019-05-21T11:20:23.743Z,35.30
2019-05-21T11:22:50.535Z,37.93
2019-05-21T11:25:17.300Z,40.57
2019-05-21T11:27:44.010Z,34.70
2019-05-21T11:30:10.902Z,35.43
2019-05-21T11:32:37.795Z,42.77
2019-05-21T11:35:05.598Z,60.10
2019-05-21T11:37:32.487Z,50.73
2019-05-21T11:39:59.250Z,36.23
2019-05-21T11:42:26.096Z,34.53
2019-05-21T11:44:52.869Z,45.67
2019-05-21T11:47:19.565Z,37.47
2019-05-21T11:49:46.371Z,51.73
2019-05-21T11:52:13.151Z,49.50
2019-05-21T11:54:40.216Z,57.10
2019-05-21T11:57:06.902Z,35.07
2019-05-21T11:59:33.681Z,42.47
2019-05-21T12:02:00.383Z,40.53
2019-05-21T12:04:27.867Z,33.00
2019-05-21T12:06:54.670Z,31.10
2019-05-21T12:09:21.444Z,46.00
2019-05-21T12:11:48.244Z,45.27
2019-05-21T12:14:14.905Z,26.87
2019-05-21T12:16:42.186Z,36.67
2019-05-21T12:19:09.191Z,34.97
2019-05-21T12:21:35.979Z,43.90
2019-05-21T12:24:02.895Z,44.80
2019-05-21T12:26:29.704Z,34.87
2019-05-21T12:28:56.701Z,48.17
2019-05-21T12:31:23.835Z,30.80
2019-05-21T12:33:50.943Z,31.70
2019-05-21T12:36:17.923Z,48.70
2019-05-21T12:38:44.713Z,29.93
2019-05-21T12:41:13.746Z,34.60
2019-05-21T12:43:40.485Z,43.30
2019-05-21T12:46:07.186Z,124.90
2019-05-21T12:48:34.011Z,35.87
2019-05-21T12:51:00.768Z,35.17
2019-05-21T12:53:27.662Z,33.53
2019-05-21T12:55:54.494Z,30.47
2019-05-21T12:58:21.652Z,29.23
2019-05-21T13:00:48.676Z,32.53
2019-05-21T13:03:15.367Z,38.43
2019-05-21T13:05:42.135Z,33.90
2019-05-21T13:08:09.239Z,32.87
2019-05-21T13:10:38.349Z,62.43
2019-05-21T13:13:07.016Z,76.33
2019-05-21T13:15:33.994Z,34.30
2019-05-21T13:18:00.670Z,36.30
2019-05-21T13:20:28.544Z,38.47
2019-05-21T13:22:56.050Z,34.37
2019-05-21T13:25:23.024Z,38.20
2019-05-21T13:27:49.681Z,35.50
2019-05-21T13:30:17.123Z,35.03
2019-05-21T13:32:44.074Z,42.90
2019-05-21T13:35:10.982Z,40.40
2019-05-21T13:37:37.674Z,35.73
2019-05-21T13:40:05.819Z,34.83
2019-05-21T13:42:33.152Z,36.67
2019-05-21T13:44:59.970Z,40.60
2019-05-21T13:47:26.786Z,32.03
2019-05-21T13:49:53.506Z,44.43
2019-05-21T13:52:21.402Z,40.27
2019-05-21T13:54:48.139Z,43.50
2019-05-21T13:57:14.938Z,38.40
2019-05-21T13:59:41.796Z,39.37
2019-05-21T14:02:12.288Z,42.20
2019-05-21T14:04:39.103Z,39.73
2019-05-21T14:07:05.924Z,41.33
2019-05-21T14:09:32.622Z,38.20
2019-05-21T14:11:59.589Z,39.20
2019-05-21T14:14:28.347Z,51.00
2019-05-21T14:16:55.443Z,42.27
2019-05-21T14:19:22.347Z,45.80
2019-05-21T14:21:49.139Z,49.37
2019-05-21T14:24:15.806Z,88.80
2019-05-21T14:26:43.091Z,45.27
2019-05-21T14:29:10.208Z,84.27
2019-05-21T14:31:37.063Z,45.00
2019-05-21T14:34:03.841Z,47.67
2019-05-21T14:36:30.650Z,44.63
2019-05-21T14:38:57.425Z,50.57
2019-05-21T14:41:24.230Z,50.90
2019-05-21T14:43:51.041Z,51.83
2019-05-21T14:46:17.890Z,55.33
2019-05-21T14:48:44.699Z,50.20
2019-05-21T14:51:13.569Z,51.73
2019-05-21T14:53:40.259Z,54.83
2019-05-21T14:56:06.934Z,60.00
2019-05-21T14:58:33.609Z,57.43
2019-05-21T15:01:00.402Z,55.17
2019-05-21T15:03:29.487Z,61.00
2019-05-21T15:05:55.854Z,53.67
2019-05-21T15:08:22.637Z,61.53
2019-05-21T15:10:50.426Z,60.60
2019-05-21T15:13:17.239Z,56.43
2019-05-21T15:15:43.913Z,60.10
2019-05-21T15:18:16.286Z,66.37
2019-05-21T15:20:52.774Z,105.57
2019-05-21T15:23:19.447Z,92.60
2019-05-21T15:25:46.225Z,62.40
2019-05-21T15:28:13.324Z,53.73
2019-05-21T15:30:41.301Z,60.60
2019-05-21T15:33:08.444Z,70.60
2019-05-21T15:35:35.134Z,56.67
2019-05-21T15:38:01.929Z,60.60
2019-05-21T15:40:28.812Z,64.43
2019-05-21T15:42:55.581Z,60.33
2019-05-21T15:45:22.667Z,51.60
2019-05-21T15:47:49.332Z,52.60
2019-05-21T15:50:17.835Z,61.93
2019-05-21T15:52:45.166Z,58.17
2019-05-21T15:55:12.029Z,42.93
2019-05-21T15:57:38.835Z,61.13
2019-05-21T16:00:05.889Z,55.83
2019-05-21T16:02:33.297Z,70.10
2019-05-21T16:05:01.894Z,52.57
2019-05-21T16:07:29.187Z,53.30
2019-05-21T16:09:56.199Z,43.63
2019-05-21T16:12:22.887Z,43.90
2019-05-21T16:14:49.670Z,50.93
2019-05-21T16:17:17.763Z,52.43
2019-05-21T16:19:44.564Z,49.73
2019-05-21T16:22:11.359Z,60.60
2019-05-21T16:24:39.322Z,187.47
2019-05-21T16:27:06.398Z,49.37
2019-05-21T16:29:33.299Z,47.57
2019-05-21T16:32:00.205Z,78.60
2019-05-21T16:34:31.602Z,42.70
2019-05-21T16:36:55.865Z,42.70
2019-05-21T16:39:24.360Z,63.20
2019-05-21T16:41:51.158Z,50.60
2019-05-21T16:44:18.235Z,49.10
2019-05-21T16:46:45.579Z,60.53
2019-05-21T16:49:15.337Z,86.03
2019-05-21T16:51:43.518Z,80.63
2019-05-21T16:54:15.310Z,80.30
2019-05-21T16:56:42.158Z,64.97
2019-05-21T16:59:09.320Z,75.80
2019-05-21T17:01:35.998Z,67.07
2019-05-21T17:04:03.039Z,78.33
2019-05-21T17:06:30.390Z,74.23
2019-05-21T17:08:57.066Z,58.57
2019-05-21T17:11:23.861Z,61.00
2019-05-21T17:13:50.534Z,75.10
2019-05-21T17:16:17.358Z,68.30
2019-05-21T17:18:44.149Z,62.87
2019-05-21T17:21:10.930Z,71.47
2019-05-21T17:23:38.049Z,60.83
2019-05-21T17:26:04.868Z,51.07
2019-05-21T17:28:31.680Z,58.23
2019-05-21T17:30:58.939Z,63.67
2019-05-21T17:33:25.597Z,65.43
2019-05-21T17:35:52.410Z,57.53
2019-05-21T17:38:19.602Z,56.23
2019-05-21T17:40:46.294Z,63.63
2019-05-21T17:43:14.148Z,55.43
2019-05-21T17:45:40.861Z,55.97
2019-05-21T17:48:07.619Z,44.87
2019-05-21T17:50:34.596Z,54.70
2019-05-21T17:53:01.632Z,59.27
2019-05-21T17:55:28.935Z,49.13
2019-05-21T17:57:55.738Z,54.63
2019-05-21T18:00:32.820Z,47.70
2019-05-21T18:02:59.773Z,62.57
2019-05-21T18:05:28.247Z,42.50
2019-05-21T18:07:55.466Z,49.90
2019-05-21T18:10:22.636Z,47.37
2019-05-21T18:12:50.708Z,103.57
2019-05-21T18:15:18.059Z,61.17
2019-05-21T18:17:45.927Z,89.40
2019-05-21T18:20:14.936Z,46.93
2019-05-21T18:22:45.228Z,65.50
2019-05-21T18:25:12.310Z,49.80
2019-05-21T18:27:39.294Z,55.10
2019-05-21T18:30:08.693Z,85.17
2019-05-21T18:32:37.481Z,40.13
2019-05-21T18:35:04.522Z,56.43
2019-05-21T18:37:33.325Z,56.20
2019-05-21T18:40:00.453Z,30.13
2019-05-21T18:42:27.125Z,59.30
2019-05-21T18:44:53.905Z,51.17
2019-05-21T18:47:21.643Z,49.67
2019-05-21T18:49:48.771Z,38.03
2019-05-21T18:52:15.599Z,34.40
2019-05-21T18:54:42.321Z,38.03
2019-05-21T18:57:09.463Z,89.57
2019-05-21T18:59:36.749Z,68.67
2019-05-21T19:02:04.651Z,50.33
2019-05-21T19:04:31.542Z,53.17
2019-05-21T19:06:58.816Z,50.43
2019-05-21T19:09:25.792Z,43.97
2019-05-21T19:11:52.633Z,74.93
2019-05-21T19:14:19.290Z,52.13
2019-05-21T19:16:46.073Z,42.20
2019-05-21T19:19:12.745Z,45.47
2019-05-21T19:21:39.550Z,59.03
2019-05-21T19:24:06.247Z,36.07
2019-05-21T19:26:33.027Z,45.27
2019-05-21T19:29:01.089Z,65.40
2019-05-21T19:31:27.858Z,54.13
2019-05-21T19:33:54.537Z,54.30
2019-05-21T19:36:21.241Z,47.80
2019-05-21T19:38:47.903Z,57.17
2019-05-21T19:41:32.835Z,39.40
2019-05-21T19:43:55.830Z,69.50
2019-05-21T19:46:22.812Z,56.83
2019-05-21T19:48:49.536Z,86.77
2019-05-21T19:51:16.300Z,49.17
2019-05-21T19:53:44.447Z,44.73
2019-05-21T19:56:11.197Z,99.40
2019-05-21T19:58:38.001Z,82.67
2019-05-21T20:01:05.603Z,61.33
2019-05-21T20:03:32.379Z,38.97
2019-05-21T20:06:00.184Z,38.40
2019-05-21T20:08:27.978Z,29.77
2019-05-21T20:10:54.768Z,27.30
2019-05-21T20:13:32.245Z,28.93
2019-05-21T20:15:50.823Z,34.30
2019-05-21T20:18:17.836Z,45.97
2019-05-21T20:20:45.284Z,39.23
2019-05-21T20:23:12.807Z,44.03
2019-05-21T20:25:55.522Z,33.00
2019-05-21T20:28:10.817Z,38.23
2019-05-21T20:30:37.953Z,37.47
2019-05-21T20:33:06.791Z,49.47
2019-05-21T20:35:33.699Z,33.57
2019-05-21T20:38:00.773Z,32.87
2019-05-21T20:40:27.871Z,47.13
2019-05-21T20:42:54.906Z,55.83
2019-05-21T20:45:22.441Z,73.53
2019-05-21T20:47:50.666Z,58.67
2019-05-21T20:50:18.999Z,37.77
2019-05-21T20:52:45.997Z,46.70
2019-05-21T20:55:14.715Z,38.40
2019-05-21T20:57:41.499Z,34.50
2019-05-21T21:00:10.211Z,135.80
2019-05-21T21:02:39.911Z,72.10
2019-05-21T21:05:08.276Z,42.07
2019-05-21T21:07:36.855Z,38.70
2019-05-21T21:10:04.323Z,35.37
2019-05-21T21:12:32.547Z,38.00
2019-05-21T21:15:00.047Z,42.90
2019-05-21T21:17:27.093Z,34.30
2019-05-21T21:19:55.812Z,39.03
2019-05-21T21:22:22.485Z,37.90
2019-05-21T21:24:49.489Z,37.30
2019-05-21T21:27:16.554Z,36.00
2019-05-21T21:29:43.775Z,23.77
2019-05-21T21:32:10.745Z,27.87
2019-05-21T21:34:37.992Z,28.87
2019-05-21T21:37:04.891Z,26.23
2019-05-21T21:39:31.856Z,17.63
2019-05-21T21:41:58.648Z,33.20
2019-05-21T21:44:34.096Z,37.30
2019-05-21T21:46:55.150Z,27.60
2019-05-21T21:49:24.723Z,23.90
2019-05-21T21:51:51.679Z,30.63
2019-05-21T21:54:21.209Z,37.47
2019-05-21T21:56:47.919Z,29.17
2019-05-21T21:59:15.026Z,16.83
2019-05-21T22:01:51.943Z,28.53
2019-05-21T22:04:22.368Z,19.70
2019-05-21T22:06:49.674Z,18.70
2019-05-21T22:09:20.786Z,24.77
2019-05-21T22:11:48.562Z,33.70
2019-05-21T22:14:16.475Z,22.17
2019-05-21T22:16:43.573Z,24.80
2019-05-21T22:19:11.102Z,22.40
2019-05-21T22:21:38.081Z,33.43
2019-05-21T22:24:04.777Z,19.00
2019-05-21T22:26:31.669Z,24.37
2019-05-21T22:28:58.518Z,20.57
2019-05-21T22:31:25.179Z,26.87
2019-05-21T22:33:51.885Z,22.90
2019-05-21T22:36:18.970Z,29.30
2019-05-21T22:38:45.705Z,18.43
2019-05-21T22:41:13.029Z,30.83
2019-05-21T22:43:40.212Z,25.07
2019-05-21T22:46:06.990Z,24.93
2019-05-21T22:48:33.773Z,16.77
2019-05-21T22:51:00.510Z,19.57
2019-05-21T22:53:27.234Z,16.07
2019-05-21T22:55:54.179Z,25.63
2019-05-21T22:58:21.130Z,32.90
2019-05-21T23:00:51.663Z,25.20
2019-05-21T23:03:18.534Z,21.43
2019-05-21T23:05:45.330Z,29.40
2019-05-21T23:08:12.428Z,31.40
2019-05-21T23:10:39.348Z,29.13
2019-05-21T23:13:07.123Z,36.87
2019-05-21T23:15:33.981Z,28.13
2019-05-21T23:18:05.750Z,41.40
2019-05-21T23:20:35.450Z,35.90
2019-05-21T23:23:03.089Z,40.30
2019-05-21T23:25:30.520Z,37.23
2019-05-21T23:27:58.310Z,45.37
2019-05-21T23:30:26.389Z,39.87
2019-05-21T23:32:53.182Z,31.50
2019-05-21T23:35:21.371Z,25.83
2019-05-21T23:37:48.290Z,41.77
2019-05-21T23:40:15.083Z,44.73
2019-05-21T23:42:42.309Z,27.27
2019-05-21T23:45:10.600Z,42.03
2019-05-21T23:47:37.781Z,19.40
2019-05-21T23:50:04.913Z,39.63
2019-05-21T23:52:31.997Z,28.73
2019-05-21T23:54:59.246Z,46.77
2019-05-21T23:57:27.350Z,41.57
2019-05-21T23:59:55.033Z,50.13
